createdAt,value
2023-03-16T00:01:08.986Z,42.10
2023-03-16T00:04:38.073Z,43.00
2023-03-16T00:08:04.357Z,44.20
2023-03-16T00:11:31.469Z,42.90
2023-03-16T00:14:59.384Z,43.90
2023-03-16T00:18:28.530Z,44.20
2023-03-16T00:21:56.088Z,44.20
2023-03-16T00:25:24.539Z,42.30
2023-03-16T00:28:54.612Z,39.10
2023-03-16T00:32:23.934Z,47.70
2023-03-16T00:35:51.145Z,50.10
2023-03-16T00:39:17.649Z,53.00
2023-03-16T00:42:44.483Z,51.50
2023-03-16T00:46:12.086Z,61.60
2023-03-16T00:49:39.718Z,58.20
2023-03-16T00:53:06.651Z,58.90
2023-03-16T00:56:34.453Z,59.50
2023-03-16T01:00:02.627Z,55.50
2023-03-16T01:03:29.260Z,49.60
2023-03-16T01:06:55.777Z,48.20
2023-03-16T01:10:22.373Z,49.40
2023-03-16T01:13:50.059Z,38.40
2023-03-16T01:17:18.171Z,41.50
2023-03-16T01:20:51.183Z,41.40
2023-03-16T01:24:18.230Z,32.30
2023-03-16T01:27:44.750Z,31.40
2023-03-16T01:31:14.660Z,30.70
2023-03-16T01:34:41.759Z,27.00
2023-03-16T01:38:09.396Z,29.00
2023-03-16T01:41:37.194Z,24.70
2023-03-16T01:45:06.127Z,27.90
2023-03-16T01:48:38.525Z,25.20
2023-03-16T01:52:08.701Z,32.80
2023-03-16T01:55:35.236Z,21.20
2023-03-16T01:59:07.337Z,23.80
2023-03-16T02:02:34.404Z,26.70
2023-03-16T02:06:06.297Z,20.60
2023-03-16T02:09:35.580Z,23.90
2023-03-16T02:13:03.964Z,22.30
2023-03-16T02:16:30.794Z,21.70
2023-03-16T02:20:11.489Z,24.20
2023-03-16T02:23:38.963Z,26.30
2023-03-16T02:27:10.519Z,27.80
2023-03-16T02:30:38.224Z,15.40
2023-03-16T02:34:05.869Z,23.40
2023-03-16T02:37:34.156Z,20.90
2023-03-16T02:41:10.893Z,23.90
2023-03-16T02:44:40.944Z,23.40
2023-03-16T02:48:14.867Z,23.00
2023-03-16T02:51:41.651Z,16.90
2023-03-16T02:55:10.141Z,21.20
2023-03-16T02:58:37.457Z,19.80
2023-03-16T03:02:09.189Z,18.50
2023-03-16T03:05:37.248Z,27.00
2023-03-16T03:09:05.076Z,33.20
2023-03-16T03:12:31.825Z,30.50
2023-03-16T03:15:58.205Z,58.10
2023-03-16T03:19:26.268Z,39.70
2023-03-16T03:22:54.000Z,32.00
2023-03-16T03:26:20.682Z,25.30
2023-03-16T03:29:48.073Z,29.70
2023-03-16T03:33:14.810Z,37.50
2023-03-16T03:36:41.689Z,29.90
2023-03-16T03:40:12.024Z,34.80
2023-03-16T03:43:39.141Z,28.50
2023-03-16T03:47:07.808Z,27.20
2023-03-16T03:50:34.352Z,31.30
2023-03-16T03:54:23.141Z,36.90
2023-03-16T03:58:03.189Z,29.30
2023-03-16T04:01:29.892Z,29.90
2023-03-16T04:04:57.678Z,27.20
2023-03-16T04:08:23.955Z,31.50
2023-03-16T04:11:51.172Z,28.70
2023-03-16T04:15:17.998Z,33.20
2023-03-16T04:18:54.627Z,29.30
2023-03-16T04:22:23.544Z,32.80
2023-03-16T04:25:50.803Z,26.00
2023-03-16T04:29:19.338Z,31.20
2023-03-16T04:32:46.290Z,27.40
2023-03-16T04:36:18.299Z,26.30
2023-03-16T04:39:45.782Z,25.50
2023-03-16T04:43:13.918Z,22.90
2023-03-16T04:46:41.608Z,27.90
2023-03-16T04:50:12.510Z,25.80
2023-03-16T04:53:40.326Z,29.50
2023-03-16T05:00:43.163Z,27.80
2023-03-16T05:04:19.919Z,26.90
2023-03-16T05:07:47.799Z,33.40
2023-03-16T05:11:15.062Z,32.70
2023-03-16T05:18:20.357Z,37.10
2023-03-16T05:21:47.178Z,37.00
2023-03-16T05:25:15.754Z,26.10
2023-03-16T05:28:47.241Z,31.00
2023-03-16T05:32:17.495Z,26.10
2023-03-16T05:35:45.037Z,24.10
2023-03-16T05:39:12.020Z,24.60
2023-03-16T05:42:51.245Z,29.20
2023-03-16T05:46:20.676Z,24.80
2023-03-16T05:49:50.351Z,27.30
2023-03-16T05:53:29.676Z,27.80
2023-03-16T05:57:01.970Z,25.40
2023-03-16T06:00:30.355Z,26.30
2023-03-16T06:04:07.566Z,27.00
2023-03-16T06:07:37.546Z,28.40
2023-03-16T06:11:05.402Z,30.00
2023-03-16T06:14:33.263Z,27.70
2023-03-16T06:18:00.215Z,27.60
2023-03-16T06:21:27.023Z,28.20
2023-03-16T06:24:56.005Z,26.50
2023-03-16T06:28:23.297Z,30.40
2023-03-16T06:31:51.616Z,29.90
2023-03-16T06:35:18.412Z,25.00
2023-03-16T06:38:54.464Z,25.70
2023-03-16T06:42:41.645Z,26.50
2023-03-16T06:46:10.410Z,27.50
2023-03-16T06:49:37.981Z,32.00
2023-03-16T06:53:12.382Z,28.60
2023-03-16T06:56:39.436Z,25.80
2023-03-16T07:00:08.577Z,25.90
2023-03-16T07:03:35.586Z,24.10
2023-03-16T07:07:19.549Z,22.50
2023-03-16T07:10:48.057Z,27.50
2023-03-16T07:14:15.860Z,21.60
2023-03-16T07:17:43.458Z,17.20
2023-03-16T07:21:10.174Z,20.00
2023-03-16T07:24:37.698Z,17.80
2023-03-16T07:28:06.324Z,17.80
2023-03-16T07:31:38.453Z,15.20
2023-03-16T07:35:10.603Z,17.60
2023-03-16T07:38:50.403Z,12.90
2023-03-16T07:42:19.253Z,21.40
2023-03-16T07:46:00.396Z,15.60
2023-03-16T07:49:28.073Z,20.00
2023-03-16T07:52:55.315Z,19.30
2023-03-16T07:56:22.893Z,18.30
2023-03-16T07:59:51.987Z,17.70
2023-03-16T08:03:23.114Z,18.80
2023-03-16T08:06:52.710Z,22.70
2023-03-16T08:10:20.594Z,19.10
2023-03-16T08:14:02.099Z,18.00
2023-03-16T08:17:45.985Z,15.00
2023-03-16T08:21:17.702Z,18.50
2023-03-16T08:24:44.438Z,19.90
2023-03-16T08:28:12.941Z,20.20
2023-03-16T08:31:43.479Z,19.90
2023-03-16T08:35:20.980Z,15.60
2023-03-16T08:39:03.796Z,14.60
2023-03-16T08:42:35.205Z,14.00
2023-03-16T08:46:04.173Z,16.50
2023-03-16T08:49:38.562Z,11.10
2023-03-16T08:53:09.744Z,14.10
2023-03-16T08:56:37.398Z,10.60
2023-03-16T09:00:14.479Z,14.90
2023-03-16T09:03:42.331Z,14.20
2023-03-16T09:07:10.191Z,9.30
2023-03-16T09:10:38.211Z,12.80
2023-03-16T09:14:05.024Z,7.90
2023-03-16T09:17:31.936Z,10.90
2023-03-16T09:21:01.021Z,7.40
2023-03-16T09:24:28.445Z,16.20
2023-03-16T09:27:55.987Z,16.50
2023-03-16T09:31:23.124Z,10.70
2023-03-16T09:34:49.887Z,12.50
2023-03-16T09:38:16.224Z,8.70
2023-03-16T09:41:50.047Z,11.50
2023-03-16T09:48:44.496Z,13.20
2023-03-16T09:52:22.882Z,11.30
2023-03-16T09:55:54.787Z,13.00
2023-03-16T09:59:22.839Z,15.20
2023-03-16T10:03:04.140Z,11.10
2023-03-16T10:06:31.894Z,12.70
2023-03-16T10:10:05.836Z,10.60
2023-03-16T10:13:39.438Z,13.40
2023-03-16T10:17:11.211Z,12.70
2023-03-16T10:20:38.145Z,13.20
2023-03-16T10:24:06.377Z,11.30
2023-03-16T10:27:36.812Z,15.30
2023-03-16T10:31:05.117Z,10.40
2023-03-16T10:34:32.546Z,16.40
2023-03-16T10:38:00.286Z,12.40
2023-03-16T10:41:32.556Z,10.40
2023-03-16T10:45:03.290Z,9.70
2023-03-16T10:48:34.259Z,7.10
2023-03-16T10:52:08.075Z,6.60
2023-03-16T10:55:45.983Z,6.10
2023-03-16T10:59:32.279Z,6.00
2023-03-16T11:03:01.373Z,9.40
2023-03-16T11:06:30.952Z,8.70
2023-03-16T11:10:00.002Z,7.10
2023-03-16T11:13:34.140Z,5.90
2023-03-16T11:17:09.884Z,6.00
2023-03-16T11:20:38.900Z,6.30
2023-03-16T11:24:12.802Z,6.90
2023-03-16T11:27:45.022Z,7.40
2023-03-16T11:31:20.571Z,9.00
2023-03-16T11:34:49.014Z,7.60
2023-03-16T11:38:20.381Z,6.90
2023-03-16T11:42:01.465Z,7.60
2023-03-16T11:45:37.908Z,8.40
2023-03-16T11:49:34.127Z,10.00
2023-03-16T11:53:09.182Z,6.10
2023-03-16T11:56:40.781Z,11.10
2023-03-16T12:00:21.925Z,11.00
2023-03-16T12:04:16.465Z,11.30
2023-03-16T12:07:58.129Z,7.50
2023-03-16T12:11:28.917Z,5.30
2023-03-16T12:15:05.508Z,4.40
2023-03-16T12:18:43.903Z,9.30
2023-03-16T12:22:21.806Z,7.20
2023-03-16T12:25:50.736Z,6.80
2023-03-16T12:29:32.606Z,5.70
2023-03-16T12:33:04.448Z,7.50
2023-03-16T12:36:53.071Z,5.20
2023-03-16T12:40:35.313Z,6.00
2023-03-16T12:44:21.267Z,9.50
